createdAt,value
2023-05-02T00:00:41.853Z,69.18
2023-05-02T00:01:41.792Z,69.18
2023-05-02T00:02:41.896Z,69.18
2023-05-02T00:03:41.830Z,69.31
2023-05-02T00:04:41.780Z,69.31
2023-05-02T00:05:41.765Z,69.28
2023-05-02T00:06:41.763Z,69.28
2023-05-02T00:07:41.747Z,69.18
2023-05-02T00:08:41.702Z,69.21
2023-05-02T00:09:41.682Z,69.18
2023-05-02T00:10:41.699Z,69.18
2023-05-02T00:11:41.660Z,69.18
2023-05-02T00:12:41.672Z,69.21
2023-05-02T00:13:41.687Z,69.21
2023-05-02T00:14:41.632Z,69.21
2023-05-02T00:15:41.654Z,69.31
2023-05-02T00:16:41.686Z,69.28
2023-05-02T00:17:41.651Z,69.18
2023-05-02T00:18:41.589Z,69.21
2023-05-02T00:19:41.615Z,69.18
2023-05-02T00:20:41.573Z,69.21
2023-05-02T00:21:41.592Z,69.21
2023-05-02T00:22:41.559Z,69.21
2023-05-02T00:23:41.533Z,69.18
2023-05-02T00:24:41.521Z,69.18
2023-05-02T00:25:41.521Z,69.31
2023-05-02T00:26:41.541Z,69.18
2023-05-02T00:27:41.489Z,69.18
2023-05-02T00:28:41.480Z,69.18
2023-05-02T00:29:41.474Z,69.18
2023-05-02T00:30:41.462Z,69.21
2023-05-02T00:31:41.641Z,69.18
2023-05-02T00:32:41.506Z,69.21
2023-05-02T00:33:41.429Z,69.31
2023-05-02T00:34:41.423Z,69.31
2023-05-02T00:35:41.412Z,69.31
2023-05-02T00:36:41.428Z,69.28
2023-05-02T00:37:41.384Z,69.31
2023-05-02T00:38:41.368Z,69.31
2023-05-02T00:39:41.361Z,69.31
2023-05-02T00:40:41.347Z,69.28
2023-05-02T00:41:41.376Z,69.28
2023-05-02T00:42:41.340Z,69.31
2023-05-02T00:43:41.320Z,69.31
2023-05-02T00:44:41.309Z,69.31
2023-05-02T00:45:41.295Z,69.31
2023-05-02T00:46:41.381Z,69.31
2023-05-02T00:47:41.320Z,69.31
2023-05-02T00:48:41.306Z,69.21
2023-05-02T00:49:41.282Z,69.21
2023-05-02T00:50:41.252Z,69.31
2023-05-02T00:51:41.263Z,69.31
2023-05-02T00:52:41.222Z,69.31
2023-05-02T00:53:41.214Z,69.31
2023-05-02T00:54:41.203Z,69.28
2023-05-02T00:55:41.234Z,69.31
2023-05-02T00:56:41.179Z,69.21
2023-05-02T00:57:41.163Z,69.21
2023-05-02T00:58:41.196Z,69.21
2023-05-02T00:59:41.147Z,69.21
2023-05-02T01:00:41.178Z,69.21
2023-05-02T01:01:41.239Z,69.31
2023-05-02T01:02:41.229Z,69.31
2023-05-02T01:03:41.366Z,69.31
2023-05-02T01:04:41.215Z,69.31
2023-05-02T01:05:41.078Z,69.31
2023-05-02T01:06:41.193Z,69.31
2023-05-02T01:07:41.058Z,69.31
2023-05-02T01:08:41.072Z,69.31
2023-05-02T01:09:41.032Z,69.31
2023-05-02T01:10:41.020Z,69.31
2023-05-02T01:11:41.015Z,69.21
2023-05-02T01:12:41.109Z,69.31
2023-05-02T01:13:40.991Z,69.31
2023-05-02T01:14:40.978Z,69.31
2023-05-02T01:15:41.028Z,69.21
2023-05-02T01:16:41.092Z,69.21
2023-05-02T01:17:41.017Z,69.21
2023-05-02T01:18:40.963Z,69.21
2023-05-02T01:19:40.934Z,69.31
2023-05-02T01:20:40.933Z,69.21
2023-05-02T01:21:40.901Z,69.21
2023-05-02T01:22:40.960Z,69.21
2023-05-02T01:23:40.911Z,69.31
2023-05-02T01:24:40.868Z,69.21
2023-05-02T01:25:40.857Z,69.31
2023-05-02T01:26:40.845Z,69.31
2023-05-02T01:27:40.877Z,69.31
2023-05-02T01:28:40.834Z,69.31
2023-05-02T01:29:40.812Z,69.31
2023-05-02T01:30:40.800Z,69.31
2023-05-02T01:31:40.871Z,69.31
2023-05-02T01:32:40.804Z,69.31
2023-05-02T01:33:40.801Z,69.31
2023-05-02T01:34:40.785Z,69.31
2023-05-02T01:35:40.747Z,69.31
2023-05-02T01:36:40.756Z,69.31
2023-05-02T01:37:40.728Z,69.31
2023-05-02T01:38:40.745Z,69.31
2023-05-02T01:39:40.712Z,69.31
2023-05-02T01:40:40.696Z,69.31
2023-05-02T01:41:40.703Z,69.31
2023-05-02T01:42:40.672Z,69.31
2023-05-02T01:43:40.696Z,69.31
2023-05-02T01:44:40.660Z,69.31
2023-05-02T01:45:40.640Z,69.31
2023-05-02T01:46:40.649Z,69.31
2023-05-02T01:47:40.677Z,69.21
2023-05-02T01:48:40.654Z,69.21
2023-05-02T01:49:40.598Z,69.21
2023-05-02T01:50:40.588Z,69.31
2023-05-02T01:51:40.586Z,69.31
2023-05-02T01:52:40.597Z,69.31
2023-05-02T01:53:40.565Z,69.21
2023-05-02T01:54:40.577Z,69.31
2023-05-02T01:55:40.532Z,69.31
2023-05-02T01:56:40.525Z,69.31
2023-05-02T01:57:40.526Z,69.31
2023-05-02T01:58:40.500Z,69.31
2023-05-02T01:59:40.521Z,69.31
2023-05-02T02:00:40.548Z,69.31
2023-05-02T02:01:40.631Z,69.31
2023-05-02T02:02:40.462Z,69.31
2023-05-02T02:03:40.473Z,69.21
2023-05-02T02:04:40.632Z,69.21
2023-05-02T02:05:40.425Z,69.21
2023-05-02T02:06:40.492Z,69.11
2023-05-02T02:07:40.406Z,69.21
2023-05-02T02:08:40.417Z,69.21
2023-05-02T02:09:40.382Z,69.21
2023-05-02T02:10:40.386Z,69.31
2023-05-02T02:11:40.389Z,69.21
2023-05-02T02:12:40.363Z,69.21
2023-05-02T02:13:40.354Z,69.21
2023-05-02T02:14:40.358Z,69.21
2023-05-02T02:15:40.316Z,69.21
2023-05-02T02:16:40.374Z,69.21
2023-05-02T02:17:40.327Z,69.21
2023-05-02T02:18:40.287Z,69.21
2023-05-02T02:19:40.306Z,69.21
2023-05-02T02:20:40.261Z,69.21
2023-05-02T02:21:40.258Z,69.21
2023-05-02T02:22:40.247Z,69.21
2023-05-02T02:23:40.232Z,69.31
2023-05-02T02:24:40.280Z,69.21
2023-05-02T02:25:40.212Z,69.31
2023-05-02T02:26:40.195Z,69.21
2023-05-02T02:27:40.186Z,69.21
2023-05-02T02:28:40.173Z,69.21
2023-05-02T02:29:40.199Z,69.21
2023-05-02T02:30:40.246Z,69.21
2023-05-02T02:31:40.149Z,69.21
2023-05-02T02:32:40.160Z,69.21
2023-05-02T02:33:40.196Z,69.21
2023-05-02T02:34:40.117Z,69.21
2023-05-02T02:35:40.121Z,69.21
2023-05-02T02:36:40.111Z,69.21
2023-05-02T02:37:40.079Z,69.21
2023-05-02T02:38:40.101Z,69.21
2023-05-02T02:39:40.063Z,69.21
2023-05-02T02:40:40.108Z,69.21
2023-05-02T02:41:40.043Z,69.21
2023-05-02T02:42:40.059Z,69.21
2023-05-02T02:43:40.022Z,69.21
2023-05-02T02:44:40.037Z,69.21
2023-05-02T02:45:40.060Z,69.21
2023-05-02T02:46:40.067Z,69.21
2023-05-02T02:47:40.010Z,69.21
2023-05-02T02:48:39.959Z,69.21
2023-05-02T02:49:39.948Z,69.21
2023-05-02T02:50:39.974Z,69.21
2023-05-02T02:51:39.926Z,69.21
2023-05-02T02:52:39.913Z,69.21
2023-05-02T02:53:39.905Z,69.21
2023-05-02T02:54:39.910Z,69.21
2023-05-02T02:55:39.921Z,69.21
2023-05-02T02:56:39.894Z,69.21
2023-05-02T02:57:39.867Z,69.21
2023-05-02T02:58:39.853Z,69.21
2023-05-02T02:59:39.838Z,69.21
2023-05-02T03:00:39.831Z,69.11
2023-05-02T03:01:39.977Z,69.21
2023-05-02T03:02:39.814Z,69.11
2023-05-02T03:03:39.826Z,69.11
2023-05-02T03:04:39.786Z,69.21
2023-05-02T03:05:39.784Z,69.11
2023-05-02T03:06:39.806Z,69.11
2023-05-02T03:07:39.751Z,69.11
2023-05-02T03:08:39.740Z,69.21
2023-05-02T03:09:39.727Z,69.21
2023-05-02T03:10:39.723Z,69.11
2023-05-02T03:11:39.738Z,69.11
2023-05-02T03:12:39.719Z,69.11
2023-05-02T03:13:39.695Z,69.11
2023-05-02T03:14:39.687Z,69.21
2023-05-02T03:15:39.723Z,69.11
2023-05-02T03:16:39.777Z,69.11
2023-05-02T03:17:39.681Z,69.11
2023-05-02T03:18:39.658Z,69.11
2023-05-02T03:19:39.624Z,69.11
2023-05-02T03:20:39.609Z,69.11
2023-05-02T03:21:39.599Z,69.11
2023-05-02T03:22:39.586Z,69.11
2023-05-02T03:23:39.608Z,69.11
2023-05-02T03:24:39.565Z,69.11
2023-05-02T03:25:39.555Z,69.11
2023-05-02T03:26:39.547Z,69.11
2023-05-02T03:27:39.577Z,69.11
2023-05-02T03:28:39.552Z,69.11
2023-05-02T03:29:39.511Z,69.21
2023-05-02T03:30:39.501Z,69.21
2023-05-02T03:31:39.530Z,69.11
2023-05-02T03:32:39.535Z,69.11
2023-05-02T03:33:39.500Z,69.11
2023-05-02T03:34:39.456Z,69.11
2023-05-02T03:35:39.465Z,69.21
2023-05-02T03:36:39.439Z,69.21
2023-05-02T03:37:39.429Z,69.21
2023-05-02T03:38:39.442Z,69.21
2023-05-02T03:39:39.407Z,69.21
2023-05-02T03:40:39.393Z,69.21
2023-05-02T03:41:39.408Z,69.21
2023-05-02T03:42:39.369Z,69.21
2023-05-02T03:43:39.400Z,69.21
2023-05-02T03:44:39.372Z,69.21
2023-05-02T03:45:39.343Z,69.21
2023-05-02T03:46:39.368Z,69.21
2023-05-02T03:47:39.361Z,69.21
2023-05-02T03:48:39.334Z,69.21
2023-05-02T03:49:39.297Z,69.21
2023-05-02T03:50:39.291Z,69.21
2023-05-02T03:51:39.274Z,69.21
2023-05-02T03:52:39.301Z,69.21
2023-05-02T03:53:39.283Z,69.21
2023-05-02T03:54:39.243Z,69.21
2023-05-02T03:55:39.228Z,69.21
2023-05-02T03:56:41.337Z,69.21
2023-05-02T03:57:39.259Z,69.21
2023-05-02T03:58:39.211Z,69.21
2023-05-02T03:59:39.193Z,69.21
2023-05-02T04:00:39.204Z,69.21
2023-05-02T04:01:39.241Z,69.21
2023-05-02T04:02:39.351Z,69.21
2023-05-02T04:03:39.262Z,69.21
2023-05-02T04:04:39.309Z,69.21
2023-05-02T04:05:39.135Z,69.21
2023-05-02T04:06:39.188Z,69.21
2023-05-02T04:07:39.108Z,69.21
2023-05-02T04:08:39.139Z,69.21
2023-05-02T04:09:39.081Z,69.21
2023-05-02T04:10:39.072Z,69.21
2023-05-02T04:11:39.063Z,69.21
2023-05-02T04:12:39.059Z,69.21
2023-05-02T04:13:39.045Z,69.21
2023-05-02T04:14:39.063Z,69.21
2023-05-02T04:15:39.020Z,69.21
2023-05-02T04:16:39.063Z,69.21
2023-05-02T04:17:39.057Z,69.21
2023-05-02T04:18:39.018Z,69.21
2023-05-02T04:19:39.024Z,69.21
2023-05-02T04:20:38.965Z,69.21
2023-05-02T04:21:38.955Z,69.21
2023-05-02T04:22:38.942Z,69.21
2023-05-02T04:23:38.932Z,69.21
2023-05-02T04:24:38.952Z,69.21
2023-05-02T04:25:38.910Z,69.21
2023-05-02T04:26:38.901Z,69.21
2023-05-02T04:27:38.891Z,69.21
2023-05-02T04:28:38.924Z,69.21
2023-05-02T04:29:38.874Z,69.21
2023-05-02T04:30:38.894Z,69.21
2023-05-02T04:31:38.845Z,69.21
2023-05-02T04:32:38.881Z,69.21
2023-05-02T04:33:38.833Z,69.21
2023-05-02T04:34:38.838Z,69.21
2023-05-02T04:35:38.800Z,69.21
2023-05-02T04:36:38.789Z,69.21
2023-05-02T04:37:38.781Z,69.21
2023-05-02T04:38:38.766Z,69.21
2023-05-02T04:39:38.794Z,69.11
2023-05-02T04:40:38.746Z,69.21
2023-05-02T04:41:38.736Z,69.21
2023-05-02T04:42:38.721Z,69.21
2023-05-02T04:43:38.716Z,69.21
2023-05-02T04:44:38.735Z,69.21
2023-05-02T04:45:38.722Z,69.21
2023-05-02T04:46:38.769Z,69.21
2023-05-02T04:47:38.706Z,69.21
2023-05-02T04:48:38.680Z,69.21
2023-05-02T04:49:38.682Z,69.21
2023-05-02T04:50:38.637Z,69.21
2023-05-02T04:51:38.623Z,69.21
2023-05-02T04:52:38.613Z,69.21
2023-05-02T04:53:38.680Z,69.21
2023-05-02T04:54:38.591Z,69.21
2023-05-02T04:55:38.583Z,69.21
2023-05-02T04:56:38.590Z,69.21
2023-05-02T04:57:38.571Z,69.21
2023-05-02T04:58:38.584Z,69.11
2023-05-02T04:59:38.595Z,69.11
2023-05-02T05:00:38.579Z,69.11
2023-05-02T05:01:38.564Z,69.21
2023-05-02T05:02:38.590Z,69.21
2023-05-02T05:03:38.740Z,69.21
2023-05-02T05:04:38.514Z,69.21
2023-05-02T05:05:38.531Z,69.21
2023-05-02T05:06:38.551Z,69.11
2023-05-02T05:07:38.456Z,69.21
2023-05-02T05:08:38.475Z,69.21
2023-05-02T05:09:38.434Z,69.21
2023-05-02T05:10:38.451Z,69.21
2023-05-02T05:11:38.407Z,69.21
2023-05-02T05:12:38.398Z,69.21
2023-05-02T05:13:38.398Z,69.21
2023-05-02T05:14:38.376Z,69.21
2023-05-02T05:15:38.402Z,69.21
2023-05-02T05:16:38.388Z,69.21
2023-05-02T05:17:38.399Z,69.21
2023-05-02T05:18:38.330Z,69.21
2023-05-02T05:19:38.355Z,69.21
2023-05-02T05:20:38.332Z,69.21
2023-05-02T05:21:38.303Z,69.21
2023-05-02T05:22:38.301Z,69.11
2023-05-02T05:23:38.288Z,69.21
2023-05-02T05:24:38.297Z,69.21
2023-05-02T05:25:38.257Z,69.21
2023-05-02T05:26:38.244Z,69.11
2023-05-02T05:27:38.241Z,69.11
2023-05-02T05:28:38.224Z,69.11
2023-05-02T05:29:38.253Z,69.11
2023-05-02T05:30:38.227Z,69.11
2023-05-02T05:31:38.256Z,69.11
2023-05-02T05:32:38.321Z,69.11
2023-05-02T05:33:38.193Z,69.11
2023-05-02T05:34:38.192Z,69.21
2023-05-02T05:35:38.152Z,69.21
2023-05-02T05:36:38.162Z,69.21
2023-05-02T05:37:38.125Z,69.21
2023-05-02T05:38:38.136Z,69.21
2023-05-02T05:39:38.138Z,69.21
2023-05-02T05:40:38.099Z,69.21
2023-05-02T05:41:38.081Z,69.21
2023-05-02T05:42:38.075Z,69.21
2023-05-02T05:43:38.366Z,69.21
2023-05-02T05:44:38.094Z,69.21
2023-05-02T05:45:38.042Z,69.11
2023-05-02T05:46:38.125Z,69.11
2023-05-02T05:47:38.195Z,69.11
2023-05-02T05:48:38.006Z,69.11
2023-05-02T05:49:38.784Z,69.21
2023-05-02T05:50:37.980Z,69.21
2023-05-02T05:51:37.977Z,69.21
2023-05-02T05:52:37.991Z,69.21
2023-05-02T05:53:37.981Z,69.11
2023-05-02T05:54:37.937Z,69.11
2023-05-02T05:55:38.748Z,69.11
2023-05-02T05:56:37.918Z,69.11
2023-05-02T05:57:37.911Z,69.11
2023-05-02T05:58:37.958Z,69.11
2023-05-02T05:59:37.929Z,69.11
2023-05-02T06:00:37.875Z,69.11
2023-05-02T06:01:37.869Z,69.11
2023-05-02T06:02:38.069Z,69.11
2023-05-02T06:03:37.978Z,69.11
2023-05-02T06:04:37.902Z,69.11
2023-05-02T06:05:37.863Z,69.11
2023-05-02T06:06:37.929Z,69.11
2023-05-02T06:07:37.823Z,69.11
2023-05-02T06:08:37.817Z,69.21
2023-05-02T06:09:37.811Z,69.21
2023-05-02T06:10:37.861Z,69.21
2023-05-02T06:11:37.774Z,69.21
2023-05-02T06:12:37.748Z,69.11
2023-05-02T06:13:37.736Z,69.11
2023-05-02T06:14:37.727Z,69.11
2023-05-02T06:15:37.771Z,69.11
2023-05-02T06:16:37.753Z,69.11
2023-05-02T06:17:37.715Z,69.11
2023-05-02T06:18:37.684Z,69.11
2023-05-02T06:19:37.670Z,69.11
2023-05-02T06:20:37.689Z,69.11
2023-05-02T06:21:37.650Z,69.11
2023-05-02T06:22:37.673Z,69.11
2023-05-02T06:23:37.659Z,69.21
2023-05-02T06:24:37.646Z,69.11
2023-05-02T06:25:37.608Z,69.11
2023-05-02T06:26:37.594Z,69.11
2023-05-02T06:27:37.617Z,69.11
2023-05-02T06:28:37.574Z,69.11
2023-05-02T06:29:37.561Z,69.11
2023-05-02T06:30:37.580Z,69.11
2023-05-02T06:31:37.577Z,69.21
2023-05-02T06:32:37.570Z,69.11
2023-05-02T06:33:37.522Z,69.11
2023-05-02T06:34:37.518Z,69.21
2023-05-02T06:35:37.526Z,69.21
2023-05-02T06:36:37.516Z,69.21
2023-05-02T06:37:37.471Z,69.31
2023-05-02T06:38:37.461Z,69.31
2023-05-02T06:39:37.453Z,69.21
2023-05-02T06:40:37.463Z,69.31
2023-05-02T06:41:37.461Z,69.31
2023-05-02T06:42:37.415Z,69.42
2023-05-02T06:43:37.404Z,69.42
2023-05-02T06:44:37.394Z,69.42
2023-05-02T06:45:37.382Z,69.42
2023-05-02T06:46:37.438Z,69.42
2023-05-02T06:47:37.444Z,69.52
2023-05-02T06:48:37.385Z,69.52
2023-05-02T06:49:37.358Z,69.42
2023-05-02T06:50:37.336Z,69.42
2023-05-02T06:51:37.342Z,69.42
2023-05-02T06:52:37.339Z,69.31
2023-05-02T06:53:37.335Z,69.42
2023-05-02T06:54:37.296Z,69.31
2023-05-02T06:55:37.276Z,69.31
2023-05-02T06:56:37.392Z,69.31
2023-05-02T06:57:37.260Z,69.42
2023-05-02T06:58:37.269Z,69.42
2023-05-02T06:59:37.267Z,69.42
2023-05-02T07:00:37.278Z,69.42
2023-05-02T07:01:37.407Z,69.42
2023-05-02T07:02:37.217Z,69.31
2023-05-02T07:03:37.204Z,69.42
2023-05-02T07:04:37.259Z,69.42
2023-05-02T07:05:37.166Z,69.42
2023-05-02T07:06:37.204Z,69.52
2023-05-02T07:07:37.149Z,69.42
2023-05-02T07:08:37.131Z,69.42
2023-05-02T07:09:37.159Z,69.31
2023-05-02T07:10:37.111Z,69.28
2023-05-02T07:11:37.114Z,69.28
2023-05-02T07:12:37.113Z,69.28
2023-05-02T07:13:37.076Z,69.38
2023-05-02T07:14:37.097Z,69.38
2023-05-02T07:15:37.084Z,69.38
2023-05-02T07:16:37.171Z,69.38
2023-05-02T07:17:37.074Z,69.28
2023-05-02T07:18:37.027Z,69.18
2023-05-02T07:19:37.008Z,69.18
2023-05-02T07:20:37.054Z,69.18
2023-05-02T07:21:37.020Z,69.28
2023-05-02T07:22:36.994Z,69.18
2023-05-02T07:23:36.983Z,69.28
2023-05-02T07:24:36.966Z,69.38
2023-05-02T07:25:36.942Z,69.38
2023-05-02T07:26:36.973Z,69.38
2023-05-02T07:27:36.920Z,69.38
2023-05-02T07:28:36.935Z,69.38
2023-05-02T07:29:36.924Z,69.38
2023-05-02T07:30:36.921Z,69.38
2023-05-02T07:31:36.921Z,69.38
2023-05-02T07:32:36.948Z,69.38
2023-05-02T07:33:36.856Z,69.38
2023-05-02T07:34:36.852Z,69.38
2023-05-02T07:35:36.862Z,69.38
2023-05-02T07:36:36.831Z,69.38
2023-05-02T07:37:36.826Z,69.38
2023-05-02T07:38:36.803Z,69.38
2023-05-02T07:39:36.791Z,69.38
2023-05-02T07:40:36.857Z,69.48
2023-05-02T07:41:36.783Z,69.48
2023-05-02T07:42:36.760Z,69.48
2023-05-02T07:43:36.755Z,69.48
2023-05-02T07:44:36.815Z,69.48
2023-05-02T07:45:36.774Z,69.48
2023-05-02T07:46:36.736Z,69.59
2023-05-02T07:47:36.730Z,69.48
2023-05-02T07:48:36.700Z,69.38
2023-05-02T07:49:36.692Z,69.28
2023-05-02T07:50:36.700Z,69.38
2023-05-02T07:51:36.665Z,69.48
2023-05-02T07:52:36.651Z,69.48
2023-05-02T07:53:36.643Z,69.48
2023-05-02T07:54:36.676Z,69.48
2023-05-02T07:55:36.641Z,69.48
2023-05-02T07:56:36.634Z,69.38
2023-05-02T07:57:36.605Z,69.38
2023-05-02T07:58:36.597Z,69.38
2023-05-02T07:59:36.611Z,69.38
2023-05-02T08:00:36.615Z,69.28
2023-05-02T08:01:36.556Z,69.28
2023-05-02T08:02:36.702Z,69.38
2023-05-02T08:03:36.838Z,69.28
2023-05-02T08:04:36.608Z,69.28
2023-05-02T08:05:36.549Z,69.28
2023-05-02T08:06:36.547Z,69.18
2023-05-02T08:07:37.254Z,69.28
2023-05-02T08:08:36.511Z,69.18
2023-05-02T08:09:36.474Z,69.28
2023-05-02T08:10:36.457Z,69.28
2023-05-02T08:11:36.457Z,69.28
2023-05-02T08:12:36.437Z,69.28
2023-05-02T08:13:36.459Z,69.28
2023-05-02T08:14:36.417Z,69.18
2023-05-02T08:15:36.411Z,69.28
2023-05-02T08:16:36.470Z,69.38
2023-05-02T08:17:36.432Z,69.28
2023-05-02T08:18:36.380Z,69.28
2023-05-02T08:19:36.366Z,69.28
2023-05-02T08:20:36.367Z,69.28
2023-05-02T08:21:36.341Z,69.18
2023-05-02T08:22:36.365Z,69.18
2023-05-02T08:23:36.321Z,69.18
2023-05-02T08:24:36.339Z,69.28
2023-05-02T08:25:36.297Z,69.38
2023-05-02T08:26:36.285Z,69.48
2023-05-02T08:27:36.278Z,69.48
2023-05-02T08:28:36.301Z,69.59
2023-05-02T08:29:36.286Z,69.48
2023-05-02T08:30:36.243Z,69.48
2023-05-02T08:31:36.256Z,69.38
2023-05-02T08:32:36.287Z,69.38
2023-05-02T08:33:36.242Z,69.48
2023-05-02T08:34:36.206Z,69.48
2023-05-02T08:35:36.186Z,69.59
2023-05-02T08:36:36.183Z,69.59
2023-05-02T08:37:36.174Z,69.48
2023-05-02T08:38:36.184Z,69.48
2023-05-02T08:39:36.154Z,69.48
2023-05-02T08:40:42.227Z,69.48
2023-05-02T08:41:37.138Z,69.48
2023-05-02T08:42:36.113Z,69.48
2023-05-02T08:43:36.140Z,69.38
2023-05-02T08:44:36.097Z,69.28
2023-05-02T08:45:36.082Z,69.28
2023-05-02T08:46:36.097Z,69.48
2023-05-02T08:47:36.078Z,69.48
2023-05-02T08:48:36.102Z,69.48
2023-05-02T08:49:36.110Z,69.48
2023-05-02T08:50:36.021Z,69.48
2023-05-02T08:51:36.709Z,69.48
2023-05-02T08:52:36.022Z,69.48
2023-05-02T08:53:36.019Z,69.48
2023-05-02T08:54:36.013Z,69.48
2023-05-02T08:55:35.991Z,69.59
2023-05-02T08:56:35.965Z,69.59
2023-05-02T08:57:35.947Z,69.48
2023-05-02T08:58:35.985Z,69.48
2023-05-02T08:59:35.928Z,69.38
2023-05-02T09:00:35.916Z,69.48
2023-05-02T09:01:35.994Z,69.59
2023-05-02T09:02:35.950Z,69.59
2023-05-02T09:03:35.905Z,69.59
2023-05-02T09:04:35.999Z,69.59
2023-05-02T09:05:35.867Z,69.59
2023-05-02T09:06:35.900Z,69.48
2023-05-02T09:07:35.840Z,69.48
2023-05-02T09:08:35.830Z,69.48
2023-05-02T09:09:35.860Z,69.38
2023-05-02T09:10:35.805Z,69.59
2023-05-02T09:11:35.823Z,69.59
2023-05-02T09:12:35.794Z,69.59
2023-05-02T09:13:35.784Z,69.48
2023-05-02T09:14:35.791Z,69.48
2023-05-02T09:15:35.755Z,69.48
2023-05-02T09:16:35.759Z,69.48
2023-05-02T09:17:35.785Z,69.38
2023-05-02T09:18:35.731Z,69.38
2023-05-02T09:19:35.739Z,69.38
2023-05-02T09:20:35.724Z,69.18
2023-05-02T09:21:35.686Z,69.28
2023-05-02T09:22:35.676Z,69.28
2023-05-02T09:23:35.666Z,69.28
2023-05-02T09:24:35.684Z,69.28
2023-05-02T09:25:35.642Z,69.38
2023-05-02T09:26:35.634Z,69.38
2023-05-02T09:27:35.619Z,69.48
2023-05-02T09:28:35.613Z,69.48
2023-05-02T09:29:35.677Z,69.59
2023-05-02T09:30:35.626Z,69.59
2023-05-02T09:32:35.587Z,69.59
2023-05-02T09:33:35.560Z,69.79
2023-05-02T09:34:35.579Z,69.89
2023-05-02T09:35:35.538Z,69.68
2023-05-02T09:36:35.550Z,69.68
2023-05-02T09:37:35.520Z,69.59
2023-05-02T09:38:35.504Z,69.59
2023-05-02T09:39:35.538Z,69.68
2023-05-02T09:40:35.480Z,69.59
2023-05-02T09:41:35.504Z,69.68
2023-05-02T09:42:35.464Z,69.68
2023-05-02T09:43:35.456Z,69.59
2023-05-02T09:44:35.442Z,69.48
2023-05-02T09:45:35.433Z,69.59
2023-05-02T09:46:35.587Z,69.59
2023-05-02T09:47:35.429Z,69.48
2023-05-02T09:48:35.398Z,69.48
2023-05-02T09:49:35.418Z,69.48
2023-05-02T09:50:35.425Z,69.48
2023-05-02T09:51:35.367Z,69.59
2023-05-02T09:52:35.383Z,69.68
2023-05-02T09:53:35.341Z,69.68
2023-05-02T09:54:35.369Z,69.68
2023-05-02T09:55:35.353Z,69.59
2023-05-02T09:56:35.324Z,69.59
2023-05-02T09:57:35.329Z,69.59
2023-05-02T09:58:35.293Z,69.59
2023-05-02T09:59:35.281Z,69.59
2023-05-02T10:00:35.301Z,69.48
2023-05-02T10:01:35.271Z,69.68
2023-05-02T10:02:36.090Z,69.59
2023-05-02T10:03:35.274Z,69.48
2023-05-02T10:04:35.379Z,69.48
2023-05-02T10:05:35.222Z,69.48
2023-05-02T10:06:35.228Z,69.48
2023-05-02T10:07:35.199Z,69.38
2023-05-02T10:08:35.241Z,69.48
2023-05-02T10:09:35.180Z,69.38
2023-05-02T10:10:35.191Z,69.48
2023-05-02T10:11:35.178Z,69.48
2023-05-02T10:12:35.141Z,69.59
2023-05-02T10:13:35.127Z,69.48
2023-05-02T10:14:35.118Z,69.38
2023-05-02T10:15:35.174Z,69.38
2023-05-02T10:16:35.255Z,69.28
2023-05-02T10:17:35.102Z,69.28
2023-05-02T10:18:35.071Z,69.38
2023-05-02T10:19:35.059Z,69.38
2023-05-02T10:20:35.078Z,69.38
2023-05-02T10:21:35.039Z,69.38
2023-05-02T10:22:35.030Z,69.48
2023-05-02T10:23:35.017Z,69.38
2023-05-02T10:24:35.064Z,69.28
2023-05-02T10:25:35.002Z,69.18
2023-05-02T10:26:34.991Z,69.48
2023-05-02T10:27:34.975Z,69.38
2023-05-02T10:28:34.991Z,69.28
2023-05-02T10:29:34.962Z,69.28
2023-05-02T10:30:34.941Z,69.18
2023-05-02T10:31:34.985Z,69.18
2023-05-02T10:32:35.013Z,69.25
2023-05-02T10:33:34.941Z,69.38
2023-05-02T10:34:34.901Z,69.38
2023-05-02T10:35:34.888Z,69.28
2023-05-02T10:36:34.880Z,69.28
2023-05-02T10:37:34.879Z,69.25
2023-05-02T10:38:34.894Z,69.28
2023-05-02T10:39:34.853Z,69.18
2023-05-02T10:40:34.855Z,69.28
2023-05-02T10:41:34.850Z,69.28
2023-05-02T10:42:34.811Z,69.28
2023-05-02T10:43:34.829Z,69.28
2023-05-02T10:44:34.829Z,69.38
2023-05-02T10:45:34.786Z,69.35
2023-05-02T10:46:34.843Z,69.35
2023-05-02T10:47:34.788Z,69.35
2023-05-02T10:48:34.779Z,69.38
2023-05-02T10:49:34.742Z,69.35
2023-05-02T10:50:34.723Z,69.35
2023-05-02T10:51:34.715Z,69.35
2023-05-02T10:52:34.705Z,69.25
2023-05-02T10:53:34.731Z,69.25
2023-05-02T10:54:34.682Z,69.35
2023-05-02T10:55:34.671Z,69.35
2023-05-02T10:56:34.701Z,69.35
2023-05-02T10:57:34.646Z,69.35
2023-05-02T10:58:34.672Z,69.35
2023-05-02T10:59:34.628Z,69.35
2023-05-02T11:00:34.764Z,69.25
2023-05-02T11:01:34.686Z,69.35
2023-05-02T11:02:34.713Z,69.25
2023-05-02T11:03:34.607Z,69.25
2023-05-02T11:04:34.609Z,69.55
2023-05-02T11:05:34.590Z,69.85
2023-05-02T11:06:34.611Z,69.85
2023-05-02T11:07:34.555Z,69.85
2023-05-02T11:08:34.533Z,69.85
2023-05-02T11:09:34.572Z,69.75
2023-05-02T11:10:34.508Z,69.75
2023-05-02T11:11:34.493Z,69.75
2023-05-02T11:12:34.539Z,69.75
2023-05-02T11:13:34.475Z,69.85
2023-05-02T11:14:34.467Z,69.85
2023-05-02T11:15:34.456Z,69.85
2023-05-02T11:16:34.504Z,69.85
2023-05-02T11:17:34.464Z,69.85
2023-05-02T11:18:34.420Z,69.75
2023-05-02T11:19:34.416Z,69.75
2023-05-02T11:20:34.396Z,69.75
2023-05-02T11:21:34.429Z,69.75
2023-05-02T11:22:34.399Z,69.75
2023-05-02T11:23:34.385Z,69.75
2023-05-02T11:24:34.355Z,69.75
2023-05-02T11:25:34.398Z,69.65
2023-05-02T11:26:34.364Z,69.65
2023-05-02T11:27:34.366Z,69.65
2023-05-02T11:28:34.370Z,69.55
2023-05-02T11:29:34.302Z,69.55
2023-05-02T11:30:34.290Z,69.55
2023-05-02T11:31:34.322Z,69.55
2023-05-02T11:32:34.358Z,69.55
2023-05-02T11:33:34.284Z,69.55
2023-05-02T11:34:34.254Z,69.55
2023-05-02T11:35:34.261Z,69.65
2023-05-02T11:36:34.233Z,69.65
2023-05-02T11:37:34.217Z,69.65
2023-05-02T11:38:34.242Z,69.65
2023-05-02T11:39:34.201Z,69.65
2023-05-02T11:40:34.220Z,69.65
2023-05-02T11:41:34.175Z,69.65
2023-05-02T11:42:34.198Z,69.55
2023-05-02T11:43:34.184Z,69.45
2023-05-02T11:44:34.162Z,69.15
2023-05-02T11:45:34.134Z,69.25
2023-05-02T11:46:34.224Z,69.25
2023-05-02T11:47:34.155Z,69.25
2023-05-02T11:48:34.133Z,69.15
2023-05-02T11:49:34.093Z,69.15
2023-05-02T11:50:34.090Z,69.15
2023-05-02T11:51:34.069Z,69.15
2023-05-02T11:52:34.058Z,69.25
2023-05-02T11:53:34.124Z,69.25
2023-05-02T11:54:34.036Z,69.15
2023-05-02T11:55:34.036Z,69.25
2023-05-02T11:56:34.017Z,69.35
2023-05-02T11:57:34.006Z,69.45
2023-05-02T11:58:34.450Z,69.45
2023-05-02T11:59:33.985Z,69.55
2023-05-02T12:00:33.996Z,69.45
2023-05-02T12:01:33.966Z,69.45
2023-05-02T12:02:34.026Z,69.35
2023-05-02T12:03:34.206Z,69.25
2023-05-02T12:04:33.932Z,69.18
2023-05-02T12:05:34.007Z,69.15
2023-05-02T12:06:33.931Z,69.28
2023-05-02T12:07:33.903Z,69.28
2023-05-02T12:08:33.918Z,69.18
2023-05-02T12:09:33.887Z,69.08
2023-05-02T12:10:33.869Z,69.08
2023-05-02T12:11:33.901Z,69.15
2023-05-02T12:12:33.845Z,69.18
2023-05-02T12:13:33.834Z,69.25
2023-05-02T12:14:33.848Z,69.18
2023-05-02T12:15:33.816Z,69.15
2023-05-02T12:16:33.884Z,69.05
2023-05-02T12:17:33.907Z,69.05
2023-05-02T12:18:33.790Z,69.15
2023-05-02T12:19:33.770Z,69.15
2023-05-02T12:20:33.758Z,69.15
2023-05-02T12:21:33.748Z,69.15
2023-05-02T12:22:33.800Z,69.15
2023-05-02T12:23:35.231Z,69.15
2023-05-02T12:24:33.727Z,69.25
2023-05-02T12:25:33.704Z,69.25
2023-05-02T12:26:33.791Z,69.25
2023-05-02T12:27:33.715Z,69.25
2023-05-02T12:28:33.675Z,69.25
2023-05-02T12:29:33.663Z,69.25
2023-05-02T12:30:33.655Z,69.25
2023-05-02T12:31:33.684Z,69.15
2023-05-02T12:32:33.763Z,69.05
2023-05-02T12:33:33.620Z,69.05
2023-05-02T12:34:33.635Z,69.01
2023-05-02T12:35:33.608Z,68.91
2023-05-02T12:36:33.641Z,68.81
2023-05-02T12:37:33.615Z,68.71
2023-05-02T12:38:33.566Z,68.61
2023-05-02T12:39:33.558Z,68.51
2023-05-02T12:40:33.542Z,68.28
2023-05-02T12:41:33.628Z,68.08
2023-05-02T12:42:33.547Z,67.97
2023-05-02T12:43:33.511Z,67.77
2023-05-02T12:44:33.505Z,67.68
2023-05-02T12:45:33.494Z,67.57
2023-05-02T12:46:33.529Z,67.44
2023-05-02T12:47:33.479Z,67.34
2023-05-02T12:48:33.485Z,67.24
2023-05-02T12:49:33.451Z,67.03
2023-05-02T12:50:33.438Z,66.83
2023-05-02T12:51:33.467Z,66.83
2023-05-02T12:52:33.414Z,66.74
2023-05-02T12:53:33.404Z,66.74